createdAt,value
2022-11-06T00:02:03.495Z,5.16
2022-11-06T00:04:34.855Z,5.15
2022-11-06T00:07:07.923Z,5.17
2022-11-06T00:09:38.361Z,5.18
2022-11-06T00:12:10.708Z,5.19
2022-11-06T00:14:41.358Z,5.19
2022-11-06T00:17:11.933Z,5.19
2022-11-06T00:19:42.364Z,5.17
2022-11-06T00:22:12.971Z,5.15
2022-11-06T00:24:43.535Z,5.15
2022-11-06T00:27:14.100Z,5.17
2022-11-06T00:29:44.506Z,5.19
2022-11-06T00:32:15.293Z,5.18
2022-11-06T00:34:45.810Z,5.16
2022-11-06T00:37:16.363Z,5.13
2022-11-06T00:39:46.891Z,5.09
2022-11-06T00:42:17.614Z,5.08
2022-11-06T00:44:48.094Z,5.09
2022-11-06T00:47:18.615Z,5.09
2022-11-06T00:49:49.074Z,5.10
2022-11-06T00:52:19.956Z,5.10
2022-11-06T00:54:50.403Z,5.08
2022-11-06T00:57:21.043Z,5.06
2022-11-06T00:59:51.676Z,5.04
2022-11-06T01:02:22.298Z,5.02
2022-11-06T01:04:52.889Z,5.02
2022-11-06T01:07:24.238Z,5.01
2022-11-06T01:09:54.611Z,4.98
2022-11-06T01:12:25.120Z,4.95
2022-11-06T01:14:55.846Z,4.92
2022-11-06T01:17:26.345Z,4.91
2022-11-06T01:19:56.848Z,4.92
2022-11-06T01:22:27.424Z,4.94
2022-11-06T01:24:57.882Z,4.93
2022-11-06T01:27:28.523Z,4.93
2022-11-06T01:30:02.401Z,4.92
2022-11-06T01:32:32.946Z,4.91
2022-11-06T01:35:03.396Z,4.91
2022-11-06T01:37:33.988Z,4.91
2022-11-06T01:40:04.968Z,4.92
2022-11-06T01:42:35.442Z,4.92
2022-11-06T01:45:34.443Z,4.93
2022-11-06T01:48:05.344Z,4.94
2022-11-06T01:50:36.237Z,4.93
2022-11-06T01:53:07.192Z,4.92
2022-11-06T01:55:40.542Z,4.89
2022-11-06T01:58:14.859Z,4.88
2022-11-06T02:00:48.900Z,4.88
2022-11-06T02:03:19.550Z,4.87
2022-11-06T02:05:50.250Z,4.88
2022-11-06T02:08:22.848Z,4.88
2022-11-06T02:10:53.685Z,4.88
2022-11-06T02:13:32.975Z,4.89
2022-11-06T02:16:09.569Z,4.90
2022-11-06T02:19:09.936Z,4.90
2022-11-06T02:22:06.603Z,4.94
2022-11-06T02:24:52.265Z,4.94
2022-11-06T02:27:26.019Z,4.93
2022-11-06T02:30:01.497Z,4.91
2022-11-06T02:32:36.377Z,4.90
2022-11-06T02:35:17.338Z,4.89
2022-11-06T02:37:48.891Z,4.89
2022-11-06T02:40:20.606Z,4.89
2022-11-06T02:42:54.125Z,4.87
2022-11-06T02:45:25.951Z,4.88
2022-11-06T02:47:57.152Z,4.89
2022-11-06T02:50:39.645Z,4.90
2022-11-06T02:53:11.186Z,4.92
2022-11-06T02:55:44.528Z,4.92
2022-11-06T02:58:17.940Z,4.92
2022-11-06T03:00:51.959Z,4.90
2022-11-06T03:03:26.367Z,4.88
2022-11-06T03:06:00.651Z,4.87
2022-11-06T03:08:35.193Z,4.86
2022-11-06T03:11:11.281Z,4.88
2022-11-06T03:13:48.283Z,4.88
2022-11-06T03:16:26.800Z,4.88
2022-11-06T03:19:03.694Z,4.90
2022-11-06T03:21:38.349Z,4.90
2022-11-06T03:24:14.472Z,4.89
2022-11-06T03:26:48.656Z,4.89
2022-11-06T03:29:21.240Z,4.89
2022-11-06T03:31:54.562Z,4.89
2022-11-06T03:34:32.225Z,4.88
2022-11-06T03:37:06.228Z,4.86
2022-11-06T03:39:40.047Z,4.85
2022-11-06T03:42:12.579Z,4.85
2022-11-06T03:44:44.447Z,4.84
2022-11-06T03:47:19.328Z,4.85
2022-11-06T03:49:52.383Z,4.83
2022-11-06T03:52:23.408Z,4.81
2022-11-06T03:54:56.448Z,4.78
2022-11-06T03:57:26.658Z,4.74
2022-11-06T04:00:00.827Z,4.69
2022-11-06T04:02:33.451Z,4.65
2022-11-06T04:05:08.714Z,4.62
2022-11-06T04:07:42.732Z,4.59
2022-11-06T04:10:31.266Z,4.54
2022-11-06T04:13:19.946Z,4.50
2022-11-06T04:15:52.336Z,4.45
2022-11-06T04:18:22.967Z,4.40
2022-11-06T04:21:16.619Z,4.38
2022-11-06T04:24:13.412Z,4.36
2022-11-06T04:26:53.099Z,4.34
2022-11-06T04:29:31.380Z,4.32
2022-11-06T04:32:07.623Z,4.30
2022-11-06T04:34:44.356Z,4.30
2022-11-06T04:37:19.419Z,4.30
2022-11-06T04:39:54.906Z,4.33
2022-11-06T04:42:29.969Z,4.32
2022-11-06T04:45:03.969Z,4.34
2022-11-06T04:47:34.895Z,4.35
2022-11-06T04:50:07.655Z,4.36
2022-11-06T04:52:39.488Z,4.39
2022-11-06T04:55:10.582Z,4.41
2022-11-06T04:57:41.024Z,4.44
2022-11-06T05:00:16.621Z,4.45
2022-11-06T05:02:47.259Z,4.46
2022-11-06T05:05:17.807Z,4.46
2022-11-06T05:07:48.402Z,4.48
2022-11-06T05:10:19.030Z,4.48
2022-11-06T05:12:51.188Z,4.47
2022-11-06T05:15:21.688Z,4.45
2022-11-06T05:17:52.199Z,4.41
2022-11-06T05:20:22.676Z,4.37
2022-11-06T05:23:00.574Z,4.35
2022-11-06T05:25:33.289Z,4.34
2022-11-06T05:28:05.845Z,4.33
2022-11-06T05:30:37.190Z,4.30
2022-11-06T05:33:07.776Z,4.25
2022-11-06T05:35:38.211Z,4.19
2022-11-06T05:38:08.811Z,4.15
2022-11-06T05:40:39.224Z,4.12
2022-11-06T05:43:09.730Z,4.09
2022-11-06T05:45:41.847Z,4.04
2022-11-06T05:48:12.784Z,4.00
2022-11-06T05:50:43.410Z,3.95
2022-11-06T05:53:18.706Z,3.93
2022-11-06T05:55:49.527Z,3.91
2022-11-06T05:58:20.047Z,3.91
2022-11-06T06:00:50.528Z,3.92
2022-11-06T06:03:21.293Z,3.91
2022-11-06T06:05:53.437Z,3.91
2022-11-06T06:08:24.203Z,3.89
2022-11-06T06:10:54.769Z,3.86
2022-11-06T06:13:25.280Z,3.85
2022-11-06T06:16:19.433Z,3.86
2022-11-06T06:18:52.327Z,3.84
2022-11-06T06:21:23.062Z,3.85
2022-11-06T06:23:54.533Z,3.88
2022-11-06T06:26:25.154Z,3.89
2022-11-06T06:28:55.871Z,3.87
2022-11-06T06:31:26.614Z,3.88
2022-11-06T06:33:57.057Z,3.85
2022-11-06T06:36:27.489Z,3.83
2022-11-06T06:38:58.153Z,3.79
2022-11-06T06:41:32.485Z,3.70
2022-11-06T06:44:02.993Z,3.66
2022-11-06T06:46:33.520Z,3.65
2022-11-06T06:49:03.962Z,3.63
2022-11-06T06:51:34.651Z,3.63
2022-11-06T06:54:05.659Z,3.63
2022-11-06T06:56:36.501Z,3.61
2022-11-06T06:59:07.569Z,3.60
2022-11-06T07:01:38.200Z,3.60
2022-11-06T07:04:12.790Z,3.61
2022-11-06T07:06:43.290Z,3.63
2022-11-06T07:09:13.813Z,3.67
2022-11-06T07:11:44.277Z,3.68
2022-11-06T07:14:15.122Z,3.69
2022-11-06T07:16:51.080Z,3.72
2022-11-06T07:19:24.100Z,3.75
2022-11-06T07:21:55.147Z,3.81
2022-11-06T07:24:25.994Z,3.83
2022-11-06T07:26:57.569Z,3.85
2022-11-06T07:29:28.053Z,3.91
2022-11-06T07:31:58.667Z,3.95
2022-11-06T07:34:29.161Z,3.98
2022-11-06T07:37:01.975Z,4.05
2022-11-06T07:39:35.722Z,4.13
2022-11-06T07:42:06.455Z,4.21
2022-11-06T07:44:38.672Z,4.30
2022-11-06T07:47:09.204Z,4.40
2022-11-06T07:49:39.809Z,4.46
2022-11-06T07:52:10.273Z,4.51
2022-11-06T07:54:40.827Z,4.55
2022-11-06T07:57:11.494Z,4.58
2022-11-06T07:59:42.548Z,4.70
2022-11-06T08:02:14.777Z,4.79
2022-11-06T08:04:46.569Z,4.80
2022-11-06T08:07:17.099Z,4.98
2022-11-06T08:09:47.529Z,5.21
2022-11-06T08:12:18.083Z,5.29
2022-11-06T08:14:51.049Z,5.34
2022-11-06T08:17:19.920Z,5.40
2022-11-06T08:19:50.342Z,5.42
2022-11-06T08:22:21.256Z,5.47
2022-11-06T08:24:51.905Z,5.49
2022-11-06T08:27:22.400Z,5.50
2022-11-06T08:29:52.901Z,5.66
2022-11-06T08:32:23.415Z,6.07
2022-11-06T08:34:53.977Z,6.41
2022-11-06T08:37:24.620Z,6.62
2022-11-06T08:39:55.047Z,6.99
2022-11-06T08:42:28.437Z,7.34
2022-11-06T08:44:58.931Z,7.63
2022-11-06T08:47:29.395Z,7.88
2022-11-06T08:49:59.897Z,8.39
2022-11-06T08:52:34.007Z,9.07
2022-11-06T08:55:05.344Z,9.91
2022-11-06T08:57:37.423Z,10.56
2022-11-06T09:00:09.721Z,10.84
2022-11-06T09:02:40.144Z,10.82
2022-11-06T09:05:11.805Z,10.86
2022-11-06T09:07:42.560Z,10.61
2022-11-06T09:10:13.111Z,10.57
2022-11-06T09:12:43.903Z,10.64
2022-11-06T09:15:14.456Z,10.62
2022-11-06T09:17:48.603Z,10.98
2022-11-06T09:20:20.713Z,11.25
2022-11-06T09:22:51.331Z,10.93
2022-11-06T09:25:22.336Z,10.97
2022-11-06T09:27:58.950Z,11.01
2022-11-06T09:30:30.989Z,11.16
2022-11-06T09:33:02.892Z,11.52
2022-11-06T09:35:35.015Z,11.82
2022-11-06T09:38:06.615Z,12.24
2022-11-06T09:40:39.594Z,12.80
2022-11-06T09:48:59.921Z,13.97
2022-11-06T09:51:39.718Z,14.12
2022-11-06T09:54:16.367Z,14.15
2022-11-06T09:56:49.216Z,14.09
2022-11-06T09:59:18.651Z,14.03
2022-11-06T10:01:52.192Z,14.24
2022-11-06T10:04:30.815Z,14.39
2022-11-06T10:07:01.387Z,13.77
2022-11-06T10:09:32.231Z,13.44
2022-11-06T10:12:11.978Z,13.26
2022-11-06T10:14:54.756Z,13.14
2022-11-06T10:17:37.956Z,12.97
2022-11-06T10:20:18.883Z,12.82
2022-11-06T10:23:02.857Z,13.53
2022-11-06T10:25:44.482Z,14.33
2022-11-06T10:28:33.318Z,15.09
2022-11-06T10:31:12.152Z,15.92
2022-11-06T10:33:52.893Z,16.34
2022-11-06T10:36:27.149Z,16.77
2022-11-06T10:38:58.438Z,17.08
2022-11-06T10:41:32.215Z,17.50
2022-11-06T10:44:06.159Z,17.90
2022-11-06T10:46:39.740Z,18.20
2022-11-06T10:49:16.925Z,18.29
2022-11-06T10:52:10.230Z,18.53
2022-11-06T10:54:54.653Z,18.83
2022-11-06T10:57:32.634Z,19.21
2022-11-06T11:13:39.896Z,21.10
2022-11-06T11:16:16.842Z,21.30
2022-11-06T11:18:47.864Z,21.04
2022-11-06T11:21:25.784Z,20.92
2022-11-06T11:24:12.891Z,20.76
2022-11-06T11:26:51.949Z,20.87
2022-11-06T11:29:36.969Z,21.16
2022-11-06T11:32:09.122Z,21.74
2022-11-06T11:34:50.405Z,22.26
2022-11-06T11:37:28.807Z,22.73
2022-11-06T11:40:27.720Z,21.94
2022-11-06T11:43:18.956Z,21.74
2022-11-06T11:46:04.243Z,21.96
2022-11-06T11:48:46.086Z,22.04
2022-11-06T11:51:26.337Z,22.09
2022-11-06T11:53:58.661Z,22.14
2022-11-06T11:57:02.511Z,22.54
2022-11-06T11:59:22.561Z,22.22
2022-11-06T12:01:53.398Z,20.55
2022-11-06T12:04:27.997Z,18.81
2022-11-06T12:07:00.947Z,17.18
2022-11-06T12:09:33.212Z,15.57
2022-11-06T12:12:03.975Z,14.32
2022-11-06T12:14:38.715Z,13.50
2022-11-06T12:17:18.428Z,12.88
2022-11-06T12:19:51.678Z,12.44
2022-11-06T12:22:27.887Z,12.13
2022-11-06T12:25:03.157Z,11.88
2022-11-06T12:27:36.437Z,11.74
2022-11-06T12:30:10.953Z,11.58
2022-11-06T12:32:49.658Z,11.40
2022-11-06T12:35:25.668Z,11.41
2022-11-06T12:38:02.036Z,11.51
2022-11-06T12:40:33.992Z,11.76
2022-11-06T12:43:14.278Z,12.21
2022-11-06T12:46:10.116Z,12.40
2022-11-06T12:48:54.364Z,12.35
2022-11-06T12:51:34.378Z,12.25
2022-11-06T12:54:18.377Z,12.24
2022-11-06T12:56:56.171Z,12.21
2022-11-06T12:59:37.053Z,12.06
2022-11-06T13:02:23.646Z,11.93
2022-11-06T13:05:00.234Z,11.89
2022-11-06T13:08:01.931Z,11.81
2022-11-06T13:10:42.520Z,11.49
2022-11-06T13:13:22.859Z,11.30
2022-11-06T13:15:59.679Z,11.09
2022-11-06T13:18:34.744Z,10.90
2022-11-06T13:21:16.143Z,10.75
2022-11-06T13:23:52.549Z,10.62
2022-11-06T13:26:26.228Z,10.51
2022-11-06T13:29:00.975Z,10.43
2022-11-06T13:31:37.070Z,10.38
2022-11-06T13:34:08.696Z,10.32
2022-11-06T13:36:42.728Z,10.28
2022-11-06T13:39:21.133Z,10.28
2022-11-06T13:41:57.292Z,10.30
2022-11-06T13:44:28.013Z,10.30
2022-11-06T13:47:05.224Z,10.27
2022-11-06T13:49:42.704Z,10.21
2022-11-06T13:52:17.332Z,10.17
2022-11-06T13:55:03.847Z,10.12
2022-11-06T13:57:43.395Z,10.08
2022-11-06T14:00:23.319Z,10.05
2022-11-06T14:03:19.742Z,10.06
2022-11-06T14:05:53.253Z,10.11
2022-11-06T14:08:26.844Z,10.13
2022-11-06T14:11:01.057Z,10.10
2022-11-06T14:13:34.413Z,10.06
2022-11-06T14:16:08.504Z,10.02
2022-11-06T14:18:39.065Z,9.98
2022-11-06T14:21:49.564Z,9.92
2022-11-06T14:24:40.030Z,9.81
2022-11-06T14:27:13.490Z,9.76
2022-11-06T14:29:58.079Z,9.71
2022-11-06T14:32:48.654Z,9.68
2022-11-06T14:35:52.009Z,9.62
2022-11-06T14:38:37.163Z,9.55
2022-11-06T14:41:44.733Z,9.49
2022-11-06T14:44:24.118Z,9.40
2022-11-06T14:46:56.897Z,9.31
2022-11-06T14:49:37.685Z,9.27
2022-11-06T14:52:10.116Z,9.23
2022-11-06T14:54:42.642Z,9.17
2022-11-06T14:57:18.628Z,9.12
2022-11-06T14:59:57.134Z,9.08
2022-11-06T15:02:34.537Z,8.99
2022-11-06T15:05:09.701Z,8.93
2022-11-06T15:10:56.800Z,8.86
2022-11-06T15:13:34.232Z,8.75
2022-11-06T15:16:15.280Z,8.66
2022-11-06T15:18:47.373Z,8.57
2022-11-06T15:21:29.438Z,8.51
2022-11-06T15:24:14.708Z,8.46
2022-11-06T15:26:52.951Z,8.37
2022-11-06T15:29:26.866Z,8.29
2022-11-06T15:32:05.398Z,8.23
2022-11-06T15:34:44.313Z,8.17
2022-11-06T15:37:29.279Z,8.12
2022-11-06T15:40:01.664Z,8.06
2022-11-06T15:42:38.476Z,8.03
2022-11-06T15:45:19.855Z,7.98
2022-11-06T15:48:01.141Z,7.92
2022-11-06T15:50:32.768Z,7.84
2022-11-06T15:53:24.373Z,7.79
2022-11-06T15:56:02.376Z,7.72
2022-11-06T15:58:40.173Z,7.67
2022-11-06T16:01:15.356Z,7.63
2022-11-06T16:03:52.286Z,7.60
2022-11-06T16:06:26.467Z,7.59
2022-11-06T16:09:05.260Z,7.58
2022-11-06T16:11:36.776Z,7.53
2022-11-06T16:14:11.857Z,7.49
2022-11-06T16:16:51.355Z,7.45
2022-11-06T16:19:36.712Z,7.42
2022-11-06T16:22:11.672Z,7.39
2022-11-06T16:24:46.831Z,7.38
2022-11-06T16:27:18.351Z,7.38
2022-11-06T16:29:50.703Z,7.38
2022-11-06T16:32:26.870Z,7.35
2022-11-06T16:34:58.605Z,7.36
2022-11-06T16:37:48.765Z,7.35
2022-11-06T16:40:49.785Z,7.31
2022-11-06T16:43:21.750Z,7.30
2022-11-06T16:45:57.550Z,7.29
2022-11-06T16:48:36.111Z,7.33
2022-11-06T16:51:12.261Z,7.34
2022-11-06T16:54:00.471Z,7.35
2022-11-06T16:56:35.894Z,7.35
2022-11-06T16:59:08.916Z,7.34
2022-11-06T17:01:50.989Z,7.34
2022-11-06T17:04:33.626Z,7.33
2022-11-06T17:07:04.315Z,7.36
2022-11-06T17:09:36.205Z,7.38
2022-11-06T17:12:12.851Z,7.40
2022-11-06T17:14:59.081Z,7.40
2022-11-06T17:17:37.577Z,7.39
2022-11-06T17:20:17.336Z,7.38
2022-11-06T17:23:30.200Z,7.37
2022-11-06T17:26:33.358Z,7.37
2022-11-06T17:29:59.839Z,7.37
2022-11-06T17:32:43.975Z,7.35
2022-11-06T17:35:46.313Z,7.31
2022-11-06T17:38:17.969Z,7.27
2022-11-06T17:40:48.467Z,7.26
2022-11-06T17:43:19.062Z,7.25
2022-11-06T17:45:50.118Z,7.24
2022-11-06T17:48:20.802Z,7.21
2022-11-06T17:51:09.345Z,7.17
2022-11-06T17:53:39.926Z,7.09
2022-11-06T17:56:13.895Z,7.05
2022-11-06T17:58:44.430Z,7.01
2022-11-06T18:01:15.231Z,6.97
2022-11-06T18:03:52.166Z,6.94
2022-11-06T18:06:22.808Z,6.90
2022-11-06T18:08:57.857Z,6.86
2022-11-06T18:11:30.657Z,6.82
2022-11-06T18:14:01.917Z,6.80
2022-11-06T18:16:37.524Z,6.78
2022-11-06T18:19:12.597Z,6.76
2022-11-06T18:21:43.094Z,6.76
2022-11-06T18:24:13.687Z,6.74
2022-11-06T18:26:44.132Z,6.70
2022-11-06T18:29:17.683Z,6.66
2022-11-06T18:31:51.166Z,6.67
2022-11-06T18:34:21.708Z,6.66
2022-11-06T18:36:52.629Z,6.68
2022-11-06T18:39:23.167Z,6.69
2022-11-06T18:42:01.257Z,6.69
2022-11-06T18:44:32.504Z,6.69
2022-11-06T18:47:02.937Z,6.69
2022-11-06T18:49:33.505Z,6.72
2022-11-06T18:52:32.455Z,6.75
2022-11-06T18:55:06.826Z,6.78
2022-11-06T18:57:37.365Z,6.79
2022-11-06T19:00:10.622Z,6.79
2022-11-06T19:02:41.480Z,6.81
2022-11-06T19:05:12.179Z,6.81
2022-11-06T19:07:45.181Z,6.85
2022-11-06T19:10:29.399Z,6.88
2022-11-06T19:13:00.041Z,6.92
2022-11-06T19:15:30.713Z,6.95
2022-11-06T19:18:01.437Z,6.96
2022-11-06T19:20:32.632Z,6.97
2022-11-06T19:23:03.176Z,6.99
2022-11-06T19:25:36.018Z,7.00
2022-11-06T19:28:23.572Z,7.00
2022-11-06T19:30:54.483Z,7.00
2022-11-06T19:33:25.642Z,6.97
2022-11-06T19:35:58.090Z,6.95
2022-11-06T19:38:32.087Z,6.92
2022-11-06T19:41:04.792Z,6.88
2022-11-06T19:43:39.477Z,6.80
2022-11-06T19:46:10.711Z,6.69
2022-11-06T19:48:46.250Z,6.60
2022-11-06T19:51:17.810Z,6.50
2022-11-06T19:53:52.225Z,6.43
2022-11-06T19:56:25.873Z,6.38
2022-11-06T19:58:56.783Z,6.33
2022-11-06T20:01:34.957Z,6.29
2022-11-06T20:04:06.041Z,6.28
2022-11-06T20:06:38.928Z,6.33
2022-11-06T20:09:15.421Z,6.38
2022-11-06T20:11:46.080Z,6.43
2022-11-06T20:14:27.953Z,6.47
2022-11-06T20:16:58.603Z,6.48
2022-11-06T20:19:31.342Z,6.45
2022-11-06T20:22:07.992Z,6.39
2022-11-06T20:24:40.941Z,6.33
2022-11-06T20:27:11.710Z,6.27
2022-11-06T20:29:45.814Z,6.21
2022-11-06T20:32:24.911Z,6.15
2022-11-06T20:35:00.393Z,6.09
2022-11-06T20:37:31.443Z,6.07
2022-11-06T20:40:06.030Z,6.06
2022-11-06T20:42:36.543Z,6.07
2022-11-06T20:45:11.684Z,6.10
2022-11-06T20:47:42.469Z,6.14
2022-11-06T20:50:16.242Z,6.19
2022-11-06T20:52:47.487Z,6.22
2022-11-06T20:55:18.359Z,6.25
2022-11-06T20:57:51.106Z,6.27
2022-11-06T21:00:22.615Z,6.30
2022-11-06T21:03:01.361Z,6.33
2022-11-06T21:05:33.599Z,6.37
2022-11-06T21:08:04.207Z,6.38
2022-11-06T21:10:34.687Z,6.38
2022-11-06T21:13:05.545Z,6.35
2022-11-06T21:15:36.158Z,6.35
2022-11-06T21:18:06.720Z,6.36
2022-11-06T21:20:40.984Z,6.39
2022-11-06T21:23:16.963Z,6.41
2022-11-06T21:25:47.749Z,6.41
2022-11-06T21:28:18.462Z,6.41
2022-11-06T21:30:50.207Z,6.40
2022-11-06T21:33:23.316Z,6.39
2022-11-06T21:35:58.442Z,6.38
2022-11-06T21:38:29.090Z,6.40
2022-11-06T21:40:59.580Z,6.41
2022-11-06T21:43:31.299Z,6.42
2022-11-06T21:46:04.293Z,6.42
2022-11-06T21:48:45.854Z,6.41
2022-11-06T21:51:18.994Z,6.39
2022-11-06T21:54:10.016Z,6.37
2022-11-06T21:56:45.194Z,6.36
2022-11-06T21:59:18.867Z,6.37
2022-11-06T22:01:49.387Z,6.38
2022-11-06T22:04:21.483Z,6.39
2022-11-06T22:06:52.933Z,6.41
2022-11-06T22:09:25.633Z,6.40
2022-11-06T22:11:56.452Z,6.41
2022-11-06T22:14:27.452Z,6.42
2022-11-06T22:16:58.118Z,6.44
2022-11-06T22:19:31.377Z,6.45
2022-11-06T22:22:01.842Z,6.46
2022-11-06T22:24:33.574Z,6.47
2022-11-06T22:27:04.065Z,6.47
2022-11-06T22:29:41.135Z,6.45
2022-11-06T22:32:13.446Z,6.47
2022-11-06T22:45:05.946Z,6.53
2022-11-06T22:47:49.058Z,6.52
2022-11-06T22:50:34.922Z,6.55
2022-11-06T22:53:14.806Z,6.59
2022-11-06T22:55:56.165Z,6.60
2022-11-06T22:58:30.925Z,6.61
2022-11-06T23:01:03.256Z,6.61
2022-11-06T23:08:56.335Z,6.68
2022-11-06T23:11:26.257Z,6.70
2022-11-06T23:17:01.488Z,6.73
2022-11-06T23:19:49.679Z,6.74
2022-11-06T23:22:40.851Z,6.76
2022-11-06T23:25:44.218Z,6.79
2022-11-06T23:28:20.432Z,6.81
2022-11-06T23:30:51.011Z,6.83
2022-11-06T23:33:21.602Z,6.84
2022-11-06T23:35:52.168Z,6.86
2022-11-06T23:38:22.609Z,6.89
2022-11-06T23:40:53.451Z,6.92
2022-11-06T23:43:23.946Z,6.95
2022-11-06T23:45:54.606Z,6.96
2022-11-06T23:48:28.537Z,6.98
2022-11-06T23:51:02.411Z,6.98
2022-11-06T23:53:34.228Z,6.99
2022-11-06T23:56:39.566Z,7.02
